createdAt,value
2023-04-17T00:01:40.211Z,7.59
2023-04-17T00:04:10.998Z,7.59
2023-04-17T00:06:38.738Z,7.68
2023-04-17T00:09:06.118Z,7.64
2023-04-17T00:11:32.850Z,7.64
2023-04-17T00:13:59.610Z,7.65
2023-04-17T00:16:27.282Z,7.70
2023-04-17T00:18:55.585Z,7.76
2023-04-17T00:21:22.719Z,7.61
2023-04-17T00:23:49.705Z,7.63
2023-04-17T00:26:16.612Z,7.50
2023-04-17T00:28:43.424Z,7.63
2023-04-17T00:31:10.163Z,7.67
2023-04-17T00:33:36.990Z,7.59
2023-04-17T00:36:04.011Z,7.61
2023-04-17T00:38:30.731Z,7.60
2023-04-17T00:40:57.390Z,7.64
2023-04-17T00:43:24.090Z,7.63
2023-04-17T00:45:51.743Z,7.59
2023-04-17T00:48:18.736Z,7.52
2023-04-17T00:50:45.850Z,7.62
2023-04-17T00:53:13.290Z,7.53
2023-04-17T00:55:43.300Z,7.54
2023-04-17T00:58:11.439Z,7.56
2023-04-17T01:00:38.120Z,7.61
2023-04-17T01:03:05.694Z,7.58
2023-04-17T01:05:35.369Z,7.58
2023-04-17T01:08:02.159Z,7.55
2023-04-17T01:10:28.931Z,7.59
2023-04-17T01:13:07.141Z,7.54
2023-04-17T01:15:34.885Z,7.52
2023-04-17T01:18:02.408Z,7.49
2023-04-17T01:20:32.645Z,7.43
2023-04-17T01:23:00.508Z,7.38
2023-04-17T01:25:28.509Z,7.28
2023-04-17T01:27:56.335Z,7.23
2023-04-17T01:30:23.257Z,7.19
2023-04-17T01:32:50.126Z,7.11
2023-04-17T01:35:16.882Z,7.09
2023-04-17T01:37:43.680Z,7.12
2023-04-17T01:40:10.818Z,7.14
2023-04-17T01:42:37.545Z,6.91
2023-04-17T01:45:06.077Z,7.05
2023-04-17T01:47:33.044Z,7.05
2023-04-17T01:49:59.814Z,7.02
2023-04-17T01:52:26.603Z,7.08
2023-04-17T01:54:53.295Z,7.07
2023-04-17T01:57:20.030Z,7.04
2023-04-17T01:59:46.761Z,6.95
2023-04-17T02:02:13.776Z,6.93
2023-04-17T02:04:40.795Z,6.86
2023-04-17T02:07:07.761Z,6.91
2023-04-17T02:09:34.448Z,6.90
2023-04-17T02:12:01.712Z,6.87
2023-04-17T02:14:30.423Z,6.90
2023-04-17T02:16:57.516Z,6.93
2023-04-17T02:19:24.268Z,6.94
2023-04-17T02:21:51.047Z,7.03
2023-04-17T02:24:17.705Z,7.02
2023-04-17T02:26:45.112Z,6.95
2023-04-17T02:29:12.140Z,6.86
2023-04-17T02:31:41.464Z,6.83
2023-04-17T02:34:08.256Z,6.82
2023-04-17T02:36:35.473Z,6.82
2023-04-17T02:39:02.198Z,6.82
2023-04-17T02:41:28.939Z,6.83
2023-04-17T02:43:56.683Z,6.75
2023-04-17T02:46:23.403Z,6.84
2023-04-17T02:48:50.145Z,6.82
2023-04-17T02:51:16.877Z,6.83
2023-04-17T02:53:43.637Z,6.76
2023-04-17T02:56:10.425Z,6.72
2023-04-17T02:58:37.559Z,6.78
2023-04-17T03:01:04.344Z,6.82
2023-04-17T03:03:34.756Z,6.88
2023-04-17T03:06:02.154Z,6.98
2023-04-17T03:08:32.574Z,6.97
2023-04-17T03:10:59.738Z,6.96
2023-04-17T03:13:26.421Z,6.95
2023-04-17T03:15:53.274Z,7.03
2023-04-17T03:18:20.083Z,6.98
2023-04-17T03:20:46.865Z,6.90
2023-04-17T03:23:13.602Z,6.82
2023-04-17T03:25:40.525Z,6.83
2023-04-17T03:28:07.256Z,6.86
2023-04-17T03:30:34.070Z,6.86
2023-04-17T03:33:00.872Z,6.90
2023-04-17T03:35:27.917Z,6.90
2023-04-17T03:37:54.697Z,6.82
2023-04-17T03:40:21.461Z,6.82
2023-04-17T03:42:48.537Z,6.75
2023-04-17T03:45:16.856Z,6.67
2023-04-17T03:47:43.795Z,6.67
2023-04-17T03:50:10.885Z,6.65
2023-04-17T03:52:37.627Z,6.60
2023-04-17T03:55:04.943Z,6.64
2023-04-17T03:57:31.772Z,6.67
2023-04-17T03:59:58.579Z,6.64
2023-04-17T04:02:25.642Z,6.67
2023-04-17T04:04:53.590Z,6.65
2023-04-17T04:07:21.535Z,6.67
2023-04-17T04:09:48.323Z,6.70
2023-04-17T04:12:15.239Z,6.68
2023-04-17T04:14:42.269Z,6.65
2023-04-17T04:17:09.160Z,6.65
2023-04-17T04:19:36.030Z,6.68
2023-04-17T04:22:06.249Z,6.74
2023-04-17T04:24:33.993Z,6.74
2023-04-17T04:27:04.902Z,6.83
2023-04-17T04:29:32.099Z,6.82
2023-04-17T04:31:59.510Z,6.89
2023-04-17T04:34:29.680Z,6.88
2023-04-17T04:36:59.488Z,6.80
2023-04-17T04:39:26.307Z,6.79
2023-04-17T04:41:53.067Z,6.90
2023-04-17T04:44:19.975Z,6.89
2023-04-17T04:46:46.906Z,6.94
2023-04-17T04:49:13.869Z,6.99
2023-04-17T04:51:40.774Z,7.09
2023-04-17T04:54:07.488Z,7.14
2023-04-17T04:56:34.477Z,7.28
2023-04-17T04:59:01.372Z,7.43
2023-04-17T05:01:29.905Z,7.40
2023-04-17T05:03:56.910Z,7.54
2023-04-17T05:06:23.945Z,7.58
2023-04-17T05:08:51.965Z,7.60
2023-04-17T05:11:18.874Z,7.77
2023-04-17T05:13:45.892Z,8.01
2023-04-17T05:16:12.748Z,7.90
2023-04-17T05:18:39.674Z,7.88
2023-04-17T05:21:06.368Z,8.07
2023-04-17T05:23:33.186Z,8.04
2023-04-17T05:25:59.858Z,8.23
2023-04-17T05:28:27.234Z,8.17
2023-04-17T05:30:54.072Z,8.30
2023-04-17T05:33:20.926Z,8.17
2023-04-17T05:35:47.612Z,8.15
2023-04-17T05:38:14.414Z,8.27
2023-04-17T05:40:41.125Z,8.11
2023-04-17T05:43:09.283Z,8.26
2023-04-17T05:45:36.285Z,8.38
2023-04-17T05:48:03.670Z,8.50
2023-04-17T05:50:30.463Z,8.50
2023-04-17T05:52:57.395Z,8.55
2023-04-17T05:55:24.191Z,8.56
2023-04-17T05:57:51.249Z,8.73
2023-04-17T06:00:18.757Z,8.82
2023-04-17T06:02:45.942Z,8.88
2023-04-17T06:05:12.970Z,9.14
2023-04-17T06:07:40.427Z,9.37
2023-04-17T06:10:08.966Z,9.70
2023-04-17T06:12:36.478Z,10.04
2023-04-17T06:15:04.460Z,10.89
2023-04-17T06:17:31.808Z,12.37
2023-04-17T06:19:58.610Z,13.22
2023-04-17T06:22:25.597Z,12.64
2023-04-17T06:24:52.401Z,13.04
2023-04-17T06:27:19.150Z,12.91
2023-04-17T06:29:46.064Z,12.66
2023-04-17T06:32:12.720Z,12.42
2023-04-17T06:34:48.941Z,11.61
2023-04-17T06:37:25.249Z,11.98
2023-04-17T06:39:52.017Z,11.94
2023-04-17T06:42:20.567Z,12.07
2023-04-17T06:44:47.279Z,12.12
2023-04-17T06:47:14.053Z,11.93
2023-04-17T06:49:40.917Z,11.28
2023-04-17T06:52:07.705Z,11.87
2023-04-17T06:54:34.426Z,11.36
2023-04-17T06:57:01.853Z,11.74
2023-04-17T06:59:28.568Z,11.71
2023-04-17T07:01:55.430Z,11.02
2023-04-17T07:04:22.265Z,11.66
2023-04-17T07:06:48.984Z,11.82
2023-04-17T07:09:16.450Z,11.27
2023-04-17T07:11:43.251Z,11.45
2023-04-17T07:14:11.594Z,11.34
2023-04-17T07:16:39.678Z,11.38
2023-04-17T07:19:06.393Z,11.75
2023-04-17T07:21:33.117Z,11.67
2023-04-17T07:23:59.923Z,11.71
2023-04-17T07:26:26.989Z,11.88
2023-04-17T07:28:53.745Z,11.82
2023-04-17T07:31:22.099Z,11.84
2023-04-17T07:33:49.251Z,11.94
2023-04-17T07:36:16.333Z,12.21
2023-04-17T07:38:43.091Z,12.03
2023-04-17T07:41:11.785Z,12.01
2023-04-17T07:43:38.636Z,11.97
2023-04-17T07:46:05.704Z,12.10
2023-04-17T07:48:32.642Z,12.21
2023-04-17T07:51:01.397Z,12.29
2023-04-17T07:53:29.079Z,11.82
2023-04-17T07:55:56.211Z,12.46
2023-04-17T07:58:24.087Z,12.38
2023-04-17T08:00:51.988Z,12.60
2023-04-17T08:03:24.257Z,12.31
2023-04-17T08:05:54.286Z,12.12
2023-04-17T08:08:22.834Z,12.33
2023-04-17T08:10:50.108Z,12.29
2023-04-17T08:13:16.886Z,12.16
2023-04-17T08:15:43.908Z,12.49
2023-04-17T08:18:10.837Z,12.38
2023-04-17T08:20:37.661Z,12.71
2023-04-17T08:23:05.161Z,12.52
2023-04-17T08:25:32.053Z,12.02
2023-04-17T08:27:58.904Z,11.84
2023-04-17T08:30:25.788Z,12.66
2023-04-17T08:32:52.585Z,12.79
2023-04-17T08:35:19.469Z,12.67
2023-04-17T08:37:49.029Z,12.85
2023-04-17T08:40:17.159Z,12.75
2023-04-17T08:42:44.403Z,12.90
2023-04-17T08:45:12.391Z,13.21
2023-04-17T08:47:40.542Z,13.45
2023-04-17T08:50:09.770Z,13.35
2023-04-17T08:52:50.153Z,13.79
2023-04-17T08:55:21.637Z,13.99
2023-04-17T08:58:02.099Z,13.88
2023-04-17T09:00:31.621Z,14.37
2023-04-17T09:03:00.566Z,14.53
2023-04-17T09:05:36.622Z,14.86
2023-04-17T09:08:14.346Z,15.29
2023-04-17T09:10:42.423Z,15.43
2023-04-17T09:13:09.828Z,15.29
2023-04-17T09:15:36.883Z,15.28
2023-04-17T09:18:04.167Z,15.52
2023-04-17T09:20:31.159Z,15.46
2023-04-17T09:23:02.977Z,15.62
2023-04-17T09:25:30.324Z,15.18
2023-04-17T09:28:11.554Z,15.87
2023-04-17T09:30:39.380Z,15.98
2023-04-17T09:33:08.488Z,16.63
2023-04-17T09:35:40.081Z,16.42
2023-04-17T09:38:07.432Z,16.28
2023-04-17T09:40:42.074Z,16.21
2023-04-17T09:43:10.676Z,17.46
2023-04-17T09:45:40.045Z,16.98
2023-04-17T09:48:10.168Z,17.38
2023-04-17T09:50:38.637Z,17.61
2023-04-17T09:53:07.689Z,18.12
2023-04-17T09:55:36.700Z,17.15
2023-04-17T09:58:05.513Z,17.55
2023-04-17T10:00:32.441Z,17.46
2023-04-17T10:03:00.205Z,17.96
2023-04-17T10:05:29.870Z,18.04
2023-04-17T10:07:57.362Z,18.12
2023-04-17T10:10:34.095Z,16.72
2023-04-17T10:13:03.128Z,16.74
2023-04-17T10:15:31.104Z,17.18
2023-04-17T10:18:21.584Z,16.95
2023-04-17T10:20:49.700Z,17.36
2023-04-17T10:23:35.807Z,16.98
2023-04-17T10:26:28.106Z,16.29
2023-04-17T10:28:57.866Z,16.20
2023-04-17T10:32:03.888Z,15.96
2023-04-17T10:34:37.669Z,16.31
2023-04-17T10:37:05.112Z,16.40
2023-04-17T10:40:00.820Z,15.03
2023-04-17T10:42:30.163Z,15.41
2023-04-17T10:44:59.883Z,15.57
2023-04-17T10:47:36.272Z,15.14
2023-04-17T10:50:07.616Z,14.25
2023-04-17T10:52:35.461Z,13.92
2023-04-17T10:55:23.084Z,13.45
2023-04-17T10:58:02.130Z,13.78
2023-04-17T11:00:35.855Z,14.06
2023-04-17T11:03:03.939Z,15.01
2023-04-17T11:05:31.940Z,15.11
2023-04-17T11:07:59.451Z,14.85
2023-04-17T11:10:26.632Z,14.26
2023-04-17T11:12:55.874Z,14.08
2023-04-17T11:15:30.097Z,13.76
2023-04-17T11:17:58.139Z,14.55
2023-04-17T11:20:26.840Z,14.71
2023-04-17T11:22:54.020Z,14.38
2023-04-17T11:25:27.947Z,13.70
2023-04-17T11:27:59.513Z,13.70
2023-04-17T11:30:38.268Z,13.55
2023-04-17T11:33:06.814Z,12.77
2023-04-17T11:35:36.099Z,12.94
2023-04-17T11:38:17.725Z,12.87
2023-04-17T11:40:51.754Z,12.60
2023-04-17T11:43:20.660Z,12.73
2023-04-17T11:45:50.913Z,12.84
2023-04-17T11:48:24.729Z,12.40
2023-04-17T11:50:55.926Z,12.37
2023-04-17T11:53:22.961Z,12.86
2023-04-17T11:56:14.282Z,13.59
2023-04-17T11:59:07.369Z,14.20
2023-04-17T12:01:34.252Z,14.95
2023-04-17T12:04:01.226Z,15.37
2023-04-17T12:06:38.169Z,14.96
2023-04-17T12:09:06.960Z,14.94
2023-04-17T12:11:34.456Z,13.92
2023-04-17T12:14:02.329Z,14.06
2023-04-17T12:16:29.720Z,14.78
2023-04-17T12:18:57.403Z,14.96
2023-04-17T12:21:24.301Z,16.08
2023-04-17T12:23:51.663Z,16.35
2023-04-17T12:26:18.551Z,16.39
2023-04-17T12:28:45.389Z,15.49
2023-04-17T12:31:12.752Z,15.43
2023-04-17T12:33:39.690Z,15.49
2023-04-17T12:36:06.955Z,16.59
2023-04-17T12:38:34.041Z,15.99
2023-04-17T12:41:01.000Z,16.06
2023-04-17T12:43:27.925Z,16.33
2023-04-17T12:45:54.843Z,15.54
2023-04-17T12:48:21.767Z,15.11
2023-04-17T12:50:48.596Z,14.22
2023-04-17T12:53:15.743Z,14.55
2023-04-17T12:55:44.334Z,14.41
2023-04-17T12:58:12.958Z,14.92
2023-04-17T13:00:43.468Z,15.53
2023-04-17T13:03:11.836Z,15.42
2023-04-17T13:05:39.407Z,15.17
2023-04-17T13:08:06.139Z,15.60
2023-04-17T13:10:34.322Z,15.97
2023-04-17T13:13:02.282Z,16.37
2023-04-17T13:15:29.038Z,16.24
2023-04-17T13:17:56.192Z,17.35
2023-04-17T13:20:23.213Z,16.75
2023-04-17T13:22:49.998Z,16.58
2023-04-17T13:25:17.020Z,16.46
2023-04-17T13:27:43.950Z,15.78
2023-04-17T13:30:11.736Z,16.02
2023-04-17T13:32:40.430Z,15.08
2023-04-17T13:35:09.642Z,14.65
2023-04-17T13:37:36.677Z,14.49
2023-04-17T13:40:05.139Z,14.44
2023-04-17T13:42:32.057Z,14.48
2023-04-17T13:44:58.745Z,14.62
2023-04-17T13:47:25.603Z,15.37
2023-04-17T13:49:52.355Z,15.62
2023-04-17T13:52:19.108Z,16.42
2023-04-17T13:54:45.864Z,16.40
2023-04-17T13:57:14.675Z,15.99
2023-04-17T13:59:41.471Z,16.60
2023-04-17T14:02:09.798Z,15.87
2023-04-17T14:04:36.740Z,15.89
2023-04-17T14:07:04.682Z,16.17
2023-04-17T14:09:31.445Z,15.46
2023-04-17T14:11:58.232Z,15.17
2023-04-17T14:14:25.084Z,15.68
2023-04-17T14:16:52.026Z,15.80
2023-04-17T14:19:19.006Z,15.49
2023-04-17T14:21:45.977Z,15.32
2023-04-17T14:24:12.864Z,14.68
2023-04-17T14:26:39.926Z,14.30
2023-04-17T14:29:06.737Z,14.42
2023-04-17T14:31:33.596Z,14.58
2023-04-17T14:34:00.782Z,14.29
2023-04-17T14:36:27.641Z,14.40
2023-04-17T14:38:54.839Z,13.79
2023-04-17T14:41:21.617Z,13.78
2023-04-17T14:43:48.440Z,13.76
2023-04-17T14:46:15.436Z,13.80
2023-04-17T14:48:54.678Z,13.73
2023-04-17T14:51:23.041Z,13.58
2023-04-17T14:53:51.270Z,13.73
2023-04-17T14:56:18.078Z,13.40
2023-04-17T14:58:45.094Z,13.62
2023-04-17T15:01:11.814Z,14.14
2023-04-17T15:03:38.901Z,13.45
2023-04-17T15:06:05.853Z,13.16
2023-04-17T15:08:32.668Z,12.73
2023-04-17T15:10:59.473Z,13.08
2023-04-17T15:13:26.336Z,12.94
2023-04-17T15:15:53.487Z,13.33
2023-04-17T15:18:20.212Z,13.37
2023-04-17T15:20:47.180Z,13.39
2023-04-17T15:23:13.956Z,12.88
2023-04-17T15:25:41.187Z,13.02
2023-04-17T15:28:07.956Z,13.96
2023-04-17T15:30:34.819Z,14.09
2023-04-17T15:33:01.601Z,13.76
2023-04-17T15:35:28.505Z,14.27
2023-04-17T15:37:55.244Z,14.22
2023-04-17T15:40:22.243Z,14.10
2023-04-17T15:42:49.080Z,13.63
2023-04-17T15:45:16.096Z,13.48
2023-04-17T15:47:43.042Z,13.03
2023-04-17T15:50:10.960Z,12.57
2023-04-17T15:52:38.595Z,12.44
2023-04-17T15:55:05.855Z,12.30
2023-04-17T15:57:32.663Z,11.79
2023-04-17T15:59:59.478Z,11.71
2023-04-17T16:02:26.349Z,11.62
2023-04-17T16:04:53.256Z,11.51
2023-04-17T16:07:20.073Z,11.18
2023-04-17T16:09:48.050Z,11.04
2023-04-17T16:12:14.981Z,10.93
2023-04-17T16:14:41.780Z,10.82
2023-04-17T16:17:08.574Z,10.83
2023-04-17T16:19:35.565Z,10.77
2023-04-17T16:22:02.425Z,10.90
2023-04-17T16:24:29.248Z,10.54
2023-04-17T16:26:58.259Z,10.77
2023-04-17T16:29:25.892Z,10.58
2023-04-17T16:31:53.975Z,10.48
2023-04-17T16:34:23.572Z,10.65
2023-04-17T16:36:50.591Z,10.46
2023-04-17T16:39:17.479Z,10.38
2023-04-17T16:41:44.297Z,10.38
2023-04-17T16:44:11.163Z,10.27
2023-04-17T16:46:55.280Z,10.19
2023-04-17T16:49:24.792Z,10.05
2023-04-17T16:51:51.744Z,10.05
2023-04-17T16:54:20.438Z,10.04
2023-04-17T16:56:48.622Z,9.93
2023-04-17T16:59:15.972Z,9.70
2023-04-17T17:01:42.840Z,9.68
2023-04-17T17:04:09.758Z,9.64
2023-04-17T17:06:36.717Z,9.65
2023-04-17T17:09:03.805Z,9.67
2023-04-17T17:11:30.749Z,9.59
2023-04-17T17:13:57.822Z,9.72
2023-04-17T17:16:25.005Z,9.64
2023-04-17T17:18:51.937Z,9.69
2023-04-17T17:21:18.886Z,9.59
2023-04-17T17:23:45.650Z,9.65
2023-04-17T17:26:12.564Z,9.67
2023-04-17T17:28:39.476Z,9.66
2023-04-17T17:31:08.187Z,9.66
2023-04-17T17:33:35.970Z,9.50
2023-04-17T17:36:03.974Z,9.50
2023-04-17T17:38:32.713Z,9.41
2023-04-17T17:40:59.886Z,9.54
2023-04-17T17:43:29.890Z,9.55
2023-04-17T17:45:56.620Z,9.36
2023-04-17T17:48:23.390Z,9.34
2023-04-17T17:50:53.635Z,9.29
2023-04-17T17:53:25.517Z,9.09
2023-04-17T17:55:57.196Z,9.07
2023-04-17T17:58:24.358Z,8.97
2023-04-17T18:00:51.243Z,8.94
2023-04-17T18:03:18.443Z,9.07
2023-04-17T18:05:46.611Z,9.02
2023-04-17T18:08:14.199Z,9.14
2023-04-17T18:10:41.096Z,9.01
2023-04-17T18:13:10.494Z,8.96
2023-04-17T18:15:39.928Z,8.93
2023-04-17T18:18:18.205Z,8.87
2023-04-17T18:20:45.445Z,8.86
2023-04-17T18:23:12.376Z,9.40
2023-04-17T18:25:39.706Z,8.94
2023-04-17T18:28:06.791Z,8.79
2023-04-17T18:30:33.667Z,8.62
2023-04-17T18:33:00.732Z,8.52
2023-04-17T18:35:30.241Z,8.50
2023-04-17T18:37:59.554Z,8.49
2023-04-17T18:40:26.318Z,8.42
2023-04-17T18:42:53.598Z,8.28
2023-04-17T18:45:20.363Z,8.37
2023-04-17T18:47:48.371Z,8.37
2023-04-17T18:50:15.469Z,8.35
2023-04-17T18:52:46.821Z,8.45
2023-04-17T18:55:17.487Z,8.30
2023-04-17T18:57:44.655Z,8.23
2023-04-17T19:00:12.186Z,8.24
2023-04-17T19:02:42.633Z,8.26
2023-04-17T19:05:10.120Z,8.28
2023-04-17T19:07:36.948Z,8.18
2023-04-17T19:10:04.511Z,8.18
2023-04-17T19:12:31.557Z,8.23
2023-04-17T19:14:58.538Z,8.22
2023-04-17T19:17:25.641Z,8.24
2023-04-17T19:19:52.563Z,8.24
2023-04-17T19:22:19.538Z,8.27
2023-04-17T19:24:49.805Z,8.31
2023-04-17T19:27:17.166Z,8.31
2023-04-17T19:29:44.256Z,8.27
2023-04-17T19:32:12.111Z,8.20
2023-04-17T19:34:39.146Z,8.13
2023-04-17T19:37:05.977Z,8.14
2023-04-17T19:39:35.464Z,8.00
2023-04-17T19:42:02.826Z,8.08
2023-04-17T19:44:29.719Z,8.17
2023-04-17T19:46:56.921Z,8.15
2023-04-17T19:49:23.678Z,8.00
2023-04-17T19:51:50.628Z,7.98
2023-04-17T19:54:17.519Z,8.00
2023-04-17T19:56:44.305Z,7.87
2023-04-17T19:59:13.228Z,7.88
2023-04-17T20:01:42.941Z,7.84
2023-04-17T20:04:10.869Z,7.75
2023-04-17T20:06:39.431Z,7.78
2023-04-17T20:09:06.784Z,7.78
2023-04-17T20:11:33.986Z,7.81
2023-04-17T20:14:00.809Z,7.68
2023-04-17T20:16:27.928Z,7.70
2023-04-17T20:18:56.815Z,7.71
2023-04-17T20:21:23.831Z,7.71
2023-04-17T20:23:50.642Z,7.65
2023-04-17T20:26:17.465Z,7.61
2023-04-17T20:28:44.431Z,7.58
2023-04-17T20:31:11.667Z,7.54
2023-04-17T20:33:38.720Z,7.52
2023-04-17T20:36:06.043Z,7.53
2023-04-17T20:38:32.994Z,7.54
2023-04-17T20:40:59.821Z,7.42
2023-04-17T20:43:26.645Z,7.29
2023-04-17T20:45:53.536Z,7.32
2023-04-17T20:48:20.481Z,7.37
2023-04-17T20:50:47.444Z,7.28
2023-04-17T20:53:14.302Z,7.27
2023-04-17T20:55:41.365Z,7.24
2023-04-17T20:58:08.288Z,7.27
2023-04-17T21:00:35.136Z,7.24
2023-04-17T21:03:02.087Z,7.23
2023-04-17T21:05:29.181Z,7.18
2023-04-17T21:07:57.712Z,7.17
2023-04-17T21:10:24.628Z,7.18
2023-04-17T21:12:51.404Z,7.19
2023-04-17T21:15:18.253Z,7.15
2023-04-17T21:17:47.646Z,7.13
2023-04-17T21:20:14.786Z,7.12
2023-04-17T21:22:41.586Z,6.98
2023-04-17T21:25:08.670Z,7.05
2023-04-17T21:27:35.718Z,7.08
2023-04-17T21:30:03.868Z,6.99
2023-04-17T21:32:30.662Z,6.94
2023-04-17T21:34:57.558Z,6.91
2023-04-17T21:37:24.338Z,6.94
2023-04-17T21:39:51.130Z,6.91
2023-04-17T21:42:17.948Z,6.91
2023-04-17T21:44:44.731Z,6.90
2023-04-17T21:47:11.532Z,6.90
2023-04-17T21:49:38.224Z,6.76
2023-04-17T21:52:04.993Z,6.82
2023-04-17T21:54:32.948Z,6.81
2023-04-17T21:56:59.629Z,6.78
2023-04-17T21:59:26.338Z,6.79
2023-04-17T22:01:53.192Z,6.72
2023-04-17T22:04:19.971Z,6.75
2023-04-17T22:06:46.954Z,6.73
2023-04-17T22:09:13.945Z,6.76
2023-04-17T22:11:40.892Z,6.67
2023-04-17T22:14:07.576Z,6.63
2023-04-17T22:16:34.447Z,6.69
2023-04-17T22:19:01.325Z,6.51
2023-04-17T22:21:28.112Z,6.52
2023-04-17T22:23:54.848Z,6.45
2023-04-17T22:26:21.860Z,6.34
2023-04-17T22:28:48.621Z,6.39
2023-04-17T22:31:15.876Z,6.38
2023-04-17T22:33:43.120Z,6.23
2023-04-17T22:36:10.089Z,6.34
2023-04-17T22:38:37.029Z,6.29
2023-04-17T22:41:04.809Z,6.23
2023-04-17T22:43:31.498Z,6.15
2023-04-17T22:45:58.325Z,6.14
2023-04-17T22:48:25.616Z,6.10
2023-04-17T22:50:52.406Z,5.97
2023-04-17T22:53:19.101Z,6.02
2023-04-17T22:55:46.163Z,6.00
2023-04-17T22:58:12.900Z,5.95
2023-04-17T23:00:39.666Z,5.92
2023-04-17T23:03:06.469Z,5.90
2023-04-17T23:05:33.442Z,5.89
2023-04-17T23:08:00.418Z,5.87
2023-04-17T23:10:27.191Z,5.85
2023-04-17T23:12:53.992Z,5.89
2023-04-17T23:15:21.064Z,5.79
2023-04-17T23:17:47.841Z,5.80
2023-04-17T23:20:14.649Z,5.84
2023-04-17T23:22:41.418Z,5.77
2023-04-17T23:25:08.801Z,5.77
2023-04-17T23:27:35.605Z,5.75
2023-04-17T23:30:02.637Z,5.74
2023-04-17T23:32:29.378Z,5.74
2023-04-17T23:34:56.296Z,5.72
2023-04-17T23:37:23.103Z,5.67
2023-04-17T23:39:49.945Z,5.68
2023-04-17T23:42:16.909Z,5.67
2023-04-17T23:44:43.866Z,5.65
2023-04-17T23:47:11.460Z,5.60
2023-04-17T23:49:38.421Z,5.51
2023-04-17T23:52:05.300Z,5.54
2023-04-17T23:54:32.142Z,5.52
2023-04-17T23:56:58.920Z,5.43
2023-04-17T23:59:25.631Z,5.45
